createdAt,value
2018-01-06T00:00:16.131Z,9.07
2018-01-06T00:02:43.518Z,4.23
2018-01-06T00:05:10.917Z,6.97
2018-01-06T00:07:38.366Z,4.73
2018-01-06T00:10:05.825Z,5.93
2018-01-06T00:12:33.206Z,6.57
2018-01-06T00:15:00.594Z,8.80
2018-01-06T00:17:27.986Z,18.13
2018-01-06T00:19:55.366Z,6.40
2018-01-06T00:22:22.772Z,6.50
2018-01-06T00:24:50.282Z,9.63
2018-01-06T00:27:17.678Z,5.10
2018-01-06T00:29:45.168Z,4.73
2018-01-06T00:32:12.566Z,12.57
2018-01-06T00:34:39.949Z,6.87
2018-01-06T00:37:07.343Z,7.50
2018-01-06T00:39:34.738Z,10.67
2018-01-06T00:42:02.153Z,9.13
2018-01-06T00:44:29.549Z,12.60
2018-01-06T00:46:57.050Z,17.23
2018-01-06T00:49:24.427Z,5.60
2018-01-06T00:51:51.835Z,6.87
2018-01-06T00:54:19.334Z,11.80
2018-01-06T00:56:46.738Z,8.93
2018-01-06T00:59:14.278Z,12.83
2018-01-06T01:01:41.729Z,12.80
2018-01-06T01:04:09.079Z,16.37
2018-01-06T01:06:36.475Z,14.23
2018-01-06T01:09:03.867Z,5.07
2018-01-06T01:11:31.275Z,7.90
2018-01-06T01:13:58.664Z,8.70
2018-01-06T01:16:26.052Z,21.00
2018-01-06T01:18:53.452Z,9.90
2018-01-06T01:21:20.863Z,7.60
2018-01-06T01:23:48.291Z,12.17
2018-01-06T01:26:15.666Z,11.63
2018-01-06T01:28:43.058Z,8.27
2018-01-06T01:31:10.467Z,12.20
2018-01-06T01:33:37.895Z,11.40
2018-01-06T01:36:05.288Z,12.47
2018-01-06T01:38:32.691Z,16.20
2018-01-06T01:41:00.071Z,13.33
2018-01-06T01:43:27.473Z,7.90
2018-01-06T01:45:54.859Z,18.50
2018-01-06T01:48:22.256Z,8.10
2018-01-06T01:50:49.674Z,9.40
2018-01-06T01:53:17.061Z,12.80
2018-01-06T01:55:44.458Z,7.60
2018-01-06T01:58:11.874Z,18.87
2018-01-06T02:00:39.251Z,8.10
2018-01-06T02:03:06.643Z,12.57
2018-01-06T02:05:34.047Z,11.57
2018-01-06T02:08:01.432Z,16.53
2018-01-06T02:10:28.832Z,14.30
2018-01-06T02:12:56.294Z,12.47
2018-01-06T02:15:23.703Z,14.73
2018-01-06T02:17:51.210Z,8.33
2018-01-06T02:20:18.668Z,15.93
2018-01-06T02:22:46.066Z,18.40
2018-01-06T02:25:13.446Z,15.50
2018-01-06T02:27:40.855Z,14.00
2018-01-06T02:30:08.292Z,23.47
2018-01-06T02:32:35.678Z,16.60
2018-01-06T02:35:03.088Z,17.43
2018-01-06T02:37:30.511Z,18.10
2018-01-06T02:39:57.911Z,31.83
2018-01-06T02:42:25.292Z,14.40
2018-01-06T02:44:52.706Z,22.80
2018-01-06T02:47:20.101Z,18.13
2018-01-06T02:49:47.483Z,17.30
2018-01-06T02:52:14.891Z,19.17
2018-01-06T02:54:42.264Z,19.30
2018-01-06T02:57:09.651Z,20.03
2018-01-06T02:59:37.067Z,19.23
2018-01-06T03:02:04.440Z,24.83
2018-01-06T03:04:31.847Z,24.80
2018-01-06T03:06:59.252Z,16.20
2018-01-06T03:09:26.634Z,19.47
2018-01-06T03:11:54.035Z,20.30
2018-01-06T03:14:21.425Z,20.93
2018-01-06T03:16:48.814Z,18.93
2018-01-06T03:19:16.278Z,28.73
2018-01-06T03:21:43.680Z,24.47
2018-01-06T03:24:11.100Z,21.93
2018-01-06T03:26:38.514Z,21.70
2018-01-06T03:29:05.903Z,24.93
2018-01-06T03:31:33.296Z,18.20
2018-01-06T03:34:00.688Z,18.80
2018-01-06T03:36:28.075Z,19.80
2018-01-06T03:38:55.491Z,21.53
2018-01-06T03:41:22.895Z,19.60
2018-01-06T03:43:50.319Z,20.33
2018-01-06T03:46:18.703Z,25.20
2018-01-06T03:48:46.091Z,21.57
2018-01-06T03:51:13.488Z,18.60
2018-01-06T03:53:40.975Z,19.63
2018-01-06T03:56:08.395Z,13.40
2018-01-06T03:58:35.782Z,23.27
2018-01-06T04:01:03.200Z,22.03
2018-01-06T04:03:30.607Z,19.40
2018-01-06T04:05:58.011Z,22.30
2018-01-06T04:08:25.407Z,22.27
2018-01-06T04:10:52.811Z,22.77
2018-01-06T04:13:20.238Z,28.30
2018-01-06T04:15:47.635Z,16.80
2018-01-06T04:18:15.023Z,20.13
2018-01-06T04:20:42.415Z,18.67
2018-01-06T04:23:09.817Z,20.87
2018-01-06T04:25:37.203Z,15.87
2018-01-06T04:28:04.617Z,19.13
2018-01-06T04:30:31.998Z,22.10
2018-01-06T04:32:59.416Z,23.70
2018-01-06T04:35:27.331Z,24.70
2018-01-06T04:37:54.761Z,23.03
2018-01-06T04:40:22.151Z,23.87
2018-01-06T04:42:49.573Z,29.03
2018-01-06T04:45:16.987Z,24.80
2018-01-06T04:47:44.398Z,14.47
2018-01-06T04:50:11.796Z,24.70
2018-01-06T04:52:39.198Z,20.83
2018-01-06T04:55:06.586Z,23.67
2018-01-06T04:57:33.994Z,17.33
2018-01-06T05:00:01.480Z,24.23
2018-01-06T05:02:28.886Z,21.77
2018-01-06T05:04:56.276Z,19.60
2018-01-06T05:07:23.678Z,20.90
2018-01-06T05:09:51.071Z,29.60
2018-01-06T05:12:18.518Z,20.73
2018-01-06T05:14:45.923Z,31.00
2018-01-06T05:17:13.314Z,17.33
2018-01-06T05:19:40.729Z,16.80
2018-01-06T05:22:08.112Z,19.30
2018-01-06T05:24:36.515Z,22.90
2018-01-06T05:27:03.916Z,24.23
2018-01-06T05:29:31.307Z,24.70
2018-01-06T05:31:58.713Z,26.10
2018-01-06T05:34:26.126Z,21.80
2018-01-06T05:36:53.529Z,21.87
2018-01-06T05:39:20.932Z,24.23
2018-01-06T05:41:48.318Z,19.40
2018-01-06T05:44:15.819Z,30.17
2018-01-06T05:46:43.235Z,24.10
2018-01-06T05:49:10.646Z,23.67
2018-01-06T05:51:38.145Z,22.77
2018-01-06T05:54:05.536Z,24.47
2018-01-06T05:56:32.954Z,23.47
2018-01-06T05:59:00.359Z,27.30
2018-01-06T06:01:27.759Z,28.80
2018-01-06T06:03:55.142Z,23.80
2018-01-06T06:06:22.566Z,20.93
2018-01-06T06:08:50.031Z,32.10
2018-01-06T06:11:17.433Z,22.70
2018-01-06T06:13:44.823Z,19.70
2018-01-06T06:16:12.231Z,28.30
2018-01-06T06:18:39.614Z,20.13
2018-01-06T06:21:07.026Z,23.53
2018-01-06T06:23:34.412Z,27.57
2018-01-06T06:26:01.832Z,27.27
2018-01-06T06:28:29.212Z,19.17
2018-01-06T06:30:56.643Z,28.87
2018-01-06T06:33:24.103Z,25.90
2018-01-06T06:35:51.503Z,22.20
2018-01-06T06:38:18.886Z,32.60
2018-01-06T06:40:46.286Z,30.03
2018-01-06T06:43:13.674Z,26.90
2018-01-06T06:45:41.102Z,29.60
2018-01-06T06:48:08.498Z,31.87
2018-01-06T06:50:35.906Z,23.00
2018-01-06T06:53:03.319Z,26.50
2018-01-06T06:55:30.707Z,30.20
2018-01-06T06:57:58.131Z,30.80
2018-01-06T07:00:25.510Z,25.67
2018-01-06T07:02:52.919Z,32.23
2018-01-06T07:05:20.346Z,25.83
2018-01-06T07:07:47.748Z,28.80
2018-01-06T07:10:15.159Z,36.53
2018-01-06T07:12:43.366Z,39.23
2018-01-06T07:15:10.866Z,32.73
2018-01-06T07:17:38.258Z,29.70
2018-01-06T07:20:05.646Z,27.43
2018-01-06T07:22:33.054Z,29.83
2018-01-06T07:25:00.464Z,25.50
2018-01-06T07:27:27.948Z,39.50
2018-01-06T07:29:55.357Z,40.57
2018-01-06T07:32:22.765Z,31.10
2018-01-06T07:34:50.202Z,26.83
2018-01-06T07:37:17.595Z,45.30
2018-01-06T07:39:44.995Z,32.80
2018-01-06T07:42:12.408Z,23.50
2018-01-06T07:44:39.822Z,28.07
2018-01-06T07:47:07.220Z,42.43
2018-01-06T07:49:34.620Z,36.67
2018-01-06T07:52:02.024Z,32.47
2018-01-06T07:54:29.426Z,39.67
2018-01-06T07:56:56.808Z,29.20
2018-01-06T07:59:24.231Z,29.27
2018-01-06T08:01:51.643Z,28.13
2018-01-06T08:04:19.047Z,32.67
2018-01-06T08:06:47.249Z,32.03
2018-01-06T08:09:14.634Z,31.27
2018-01-06T08:11:42.039Z,30.80
2018-01-06T08:14:09.481Z,26.60
2018-01-06T08:16:36.874Z,22.90
2018-01-06T08:19:04.262Z,25.17
2018-01-06T08:21:31.685Z,23.87
2018-01-06T08:23:59.084Z,29.37
2018-01-06T08:26:26.475Z,29.17
2018-01-06T08:28:53.886Z,28.03
2018-01-06T08:31:21.315Z,24.90
2018-01-06T08:33:48.699Z,22.90
2018-01-06T08:36:16.203Z,29.93
2018-01-06T08:38:43.639Z,20.53
2018-01-06T08:41:11.016Z,29.87
2018-01-06T08:43:38.484Z,21.93
2018-01-06T08:46:05.881Z,20.53
2018-01-06T08:48:33.258Z,21.83
2018-01-06T08:51:00.683Z,28.60
2018-01-06T08:53:28.084Z,24.57
2018-01-06T08:55:55.478Z,29.20
2018-01-06T08:58:23.070Z,31.27
2018-01-06T09:00:50.473Z,29.63
2018-01-06T09:03:17.872Z,28.87
2018-01-06T09:05:45.266Z,19.50
2018-01-06T09:08:12.673Z,21.40
2018-01-06T09:10:40.096Z,21.40
2018-01-06T09:13:07.573Z,26.30
2018-01-06T09:15:34.946Z,18.90
2018-01-06T09:18:02.352Z,18.33
2018-01-06T09:20:29.742Z,22.80
2018-01-06T09:22:57.160Z,19.73
2018-01-06T09:25:24.559Z,21.03
2018-01-06T09:27:51.955Z,15.67
2018-01-06T09:30:19.360Z,20.10
2018-01-06T09:32:46.759Z,16.23
2018-01-06T09:35:14.151Z,19.30
2018-01-06T09:37:41.553Z,17.87
2018-01-06T09:40:08.946Z,21.33
2018-01-06T09:42:36.343Z,34.37
2018-01-06T09:45:03.743Z,24.03
2018-01-06T09:47:31.141Z,23.57
2018-01-06T09:49:58.527Z,17.43
2018-01-06T09:52:25.960Z,24.60
2018-01-06T09:54:53.365Z,27.03
2018-01-06T09:57:20.737Z,25.53
2018-01-06T09:59:48.158Z,21.37
2018-01-06T10:02:15.643Z,21.67
2018-01-06T10:04:43.046Z,21.27
2018-01-06T10:07:10.444Z,34.43
2018-01-06T10:09:37.839Z,19.27
2018-01-06T10:12:05.243Z,23.23
2018-01-06T10:14:32.643Z,19.23
2018-01-06T10:17:00.029Z,23.73
2018-01-06T10:19:27.426Z,18.13
2018-01-06T10:21:55.726Z,20.80
2018-01-06T10:24:23.139Z,24.90
2018-01-06T10:26:50.618Z,22.73
2018-01-06T10:29:18.022Z,23.90
2018-01-06T10:31:45.556Z,27.77
2018-01-06T10:34:12.968Z,15.80
2018-01-06T10:36:40.372Z,20.37
2018-01-06T10:39:07.776Z,17.10
2018-01-06T10:41:35.170Z,17.93
2018-01-06T10:44:02.588Z,25.80
2018-01-06T10:46:29.978Z,20.27
2018-01-06T10:48:57.379Z,24.53
2018-01-06T10:51:24.791Z,20.53
2018-01-06T10:53:52.214Z,23.83
2018-01-06T10:56:19.646Z,18.30
2018-01-06T10:58:47.119Z,16.90
2018-01-06T11:01:20.364Z,27.60
2018-01-06T11:03:47.750Z,32.23
2018-01-06T11:06:15.307Z,29.10
2018-01-06T11:08:42.708Z,30.27
2018-01-06T11:11:10.120Z,23.20
2018-01-06T11:13:37.503Z,31.67
2018-01-06T11:16:04.960Z,29.43
2018-01-06T11:18:32.350Z,28.43
2018-01-06T11:20:59.854Z,37.13
2018-01-06T11:23:27.247Z,29.23
2018-01-06T11:25:54.669Z,30.50
2018-01-06T11:28:22.058Z,32.90
2018-01-06T11:30:49.474Z,29.80
2018-01-06T11:33:17.055Z,30.80
2018-01-06T11:35:44.475Z,27.80
2018-01-06T11:38:11.886Z,30.10
2018-01-06T11:40:39.455Z,27.03
2018-01-06T11:43:06.903Z,31.60
2018-01-06T11:45:34.306Z,28.40
2018-01-06T11:48:01.785Z,52.30
2018-01-06T11:50:29.171Z,24.80
2018-01-06T11:52:56.578Z,32.80
2018-01-06T11:55:24.005Z,27.50
2018-01-06T11:57:51.429Z,31.90
2018-01-06T12:00:18.823Z,30.10
2018-01-06T12:02:46.223Z,24.13
2018-01-06T12:05:13.665Z,31.50
2018-01-06T12:07:41.001Z,34.93
2018-01-06T12:10:08.400Z,30.20
2018-01-06T12:12:35.818Z,27.97
2018-01-06T12:15:03.235Z,26.07
2018-01-06T12:17:30.650Z,28.27
2018-01-06T12:19:58.038Z,30.37
2018-01-06T12:22:25.440Z,33.63
2018-01-06T12:24:52.835Z,42.13
2018-01-06T12:27:20.244Z,34.97
2018-01-06T12:29:47.638Z,36.60
2018-01-06T12:32:15.043Z,35.53
2018-01-06T12:34:42.446Z,33.07
2018-01-06T12:37:09.854Z,29.40
2018-01-06T12:39:37.250Z,31.30
2018-01-06T12:42:04.656Z,28.37
2018-01-06T12:44:32.049Z,29.73
2018-01-06T12:46:59.439Z,27.27
2018-01-06T12:49:26.847Z,33.00
2018-01-06T12:51:54.260Z,31.70
2018-01-06T12:54:21.663Z,32.37
2018-01-06T12:56:49.050Z,39.33
2018-01-06T12:59:16.526Z,36.87
2018-01-06T13:01:43.923Z,26.63
2018-01-06T13:04:11.363Z,31.57
2018-01-06T13:06:38.782Z,31.10
2018-01-06T13:09:06.190Z,35.53
2018-01-06T13:11:33.587Z,33.63
2018-01-06T13:14:00.987Z,28.60
2018-01-06T13:16:28.393Z,34.33
2018-01-06T13:18:55.796Z,33.23
2018-01-06T13:21:23.206Z,28.63
2018-01-06T13:23:50.620Z,30.63
2018-01-06T13:26:18.019Z,34.60
2018-01-06T13:28:45.414Z,40.57
2018-01-06T13:31:12.820Z,33.17
2018-01-06T13:33:40.248Z,31.10
2018-01-06T13:36:07.646Z,34.93
2018-01-06T13:38:35.047Z,33.50
2018-01-06T13:41:02.460Z,26.60
2018-01-06T13:43:29.854Z,31.07
2018-01-06T13:45:57.263Z,29.13
2018-01-06T13:48:24.658Z,28.67
2018-01-06T13:50:52.067Z,37.80
2018-01-06T13:53:19.459Z,45.70
2018-01-06T13:55:46.886Z,40.70
2018-01-06T13:58:14.296Z,36.93
2018-01-06T14:00:41.700Z,32.27
2018-01-06T14:03:09.102Z,35.60
2018-01-06T14:05:36.500Z,46.33
2018-01-06T14:08:03.901Z,30.57
2018-01-06T14:10:31.391Z,42.00
2018-01-06T14:12:58.781Z,41.17
2018-01-06T14:15:26.179Z,44.10
2018-01-06T14:17:53.575Z,44.83
2018-01-06T14:20:20.990Z,45.50
2018-01-06T14:22:48.374Z,32.80
2018-01-06T14:25:15.834Z,36.30
2018-01-06T14:27:43.251Z,49.40
2018-01-06T14:30:10.639Z,36.43
2018-01-06T14:32:38.203Z,46.70
2018-01-06T14:35:05.594Z,40.50
2018-01-06T14:37:34.590Z,40.57
2018-01-06T14:40:00.427Z,46.90
2018-01-06T14:42:27.953Z,42.83
2018-01-06T14:44:55.381Z,43.60
2018-01-06T14:47:22.794Z,40.87
2018-01-06T14:49:50.183Z,43.50
2018-01-06T14:52:17.600Z,48.73
2018-01-06T14:54:44.990Z,55.37
2018-01-06T14:57:12.398Z,47.10
2018-01-06T14:59:39.802Z,49.07
2018-01-06T15:02:07.231Z,42.73
2018-01-06T15:04:34.657Z,40.47
2018-01-06T15:07:02.071Z,38.60
2018-01-06T15:09:29.478Z,35.43
2018-01-06T15:11:56.895Z,41.27
2018-01-06T15:14:24.319Z,42.40
2018-01-06T15:16:51.735Z,35.70
2018-01-06T15:19:19.162Z,37.27
2018-01-06T15:21:46.582Z,45.30
2018-01-06T15:24:13.986Z,49.20
2018-01-06T15:26:41.413Z,43.60
2018-01-06T15:29:08.815Z,43.23
2018-01-06T15:31:36.230Z,45.40
2018-01-06T15:34:03.642Z,45.40
2018-01-06T15:36:31.100Z,60.27
2018-01-06T15:38:58.600Z,48.57
2018-01-06T15:41:26.010Z,36.73
2018-01-06T15:43:53.419Z,19.37
2018-01-06T15:46:20.812Z,5.50
2018-01-06T15:48:48.211Z,6.53
2018-01-06T15:51:15.615Z,6.17
2018-01-06T15:53:43.018Z,5.77
2018-01-06T15:56:10.431Z,4.70
2018-01-06T15:58:37.842Z,4.43
2018-01-06T16:01:05.241Z,6.17
2018-01-06T16:03:32.647Z,4.27
2018-01-06T16:06:00.182Z,4.67
2018-01-06T16:08:27.580Z,7.10
2018-01-06T16:10:55.026Z,3.77
2018-01-06T16:13:22.410Z,4.33
2018-01-06T16:15:49.834Z,4.00
2018-01-06T16:18:17.218Z,4.63
2018-01-06T16:20:44.627Z,3.37
2018-01-06T16:23:12.015Z,3.83
2018-01-06T16:25:39.406Z,4.63
2018-01-06T16:28:06.799Z,3.93
2018-01-06T16:30:34.199Z,3.20
2018-01-06T16:33:01.650Z,9.53
2018-01-06T16:35:29.043Z,4.73
2018-01-06T16:37:56.426Z,5.90
2018-01-06T16:40:23.900Z,7.60
2018-01-06T16:42:51.346Z,5.67
2018-01-06T16:45:18.744Z,5.50
2018-01-06T16:47:46.123Z,6.07
2018-01-06T16:50:13.542Z,6.00
2018-01-06T16:52:41.084Z,7.10
2018-01-06T16:55:08.468Z,7.33
2018-01-06T16:57:35.854Z,7.13
2018-01-06T17:00:03.972Z,9.32
2018-01-06T17:02:31.354Z,7.20
2018-01-06T17:04:58.741Z,6.10
2018-01-06T17:07:26.273Z,6.77
2018-01-06T17:09:53.656Z,8.10
2018-01-06T17:12:21.051Z,6.83
2018-01-06T17:14:48.478Z,8.70
2018-01-06T17:17:15.879Z,8.30
2018-01-06T17:19:43.314Z,8.50
2018-01-06T17:22:10.708Z,7.60
2018-01-06T17:24:38.096Z,6.97
2018-01-06T17:27:05.491Z,7.97
2018-01-06T17:29:32.927Z,11.80
2018-01-06T17:32:00.323Z,9.97
2018-01-06T17:34:27.739Z,8.27
2018-01-06T17:36:55.135Z,8.10
2018-01-06T17:39:22.539Z,12.20
2018-01-06T17:41:49.954Z,10.13
2018-01-06T17:44:17.402Z,7.40
2018-01-06T17:46:44.922Z,9.07
2018-01-06T17:49:12.324Z,8.67
2018-01-06T17:51:39.735Z,11.43
2018-01-06T17:54:07.114Z,8.60
2018-01-06T17:56:34.501Z,9.03
2018-01-06T17:59:01.987Z,8.17
2018-01-06T18:01:29.398Z,10.23
2018-01-06T18:03:56.812Z,8.87
2018-01-06T18:06:24.255Z,9.33
2018-01-06T18:08:51.616Z,8.13
2018-01-06T18:11:19.007Z,8.40
2018-01-06T18:13:46.399Z,7.57
2018-01-06T18:16:13.884Z,7.20
2018-01-06T18:18:41.279Z,6.23
2018-01-06T18:21:08.672Z,7.57
2018-01-06T18:23:36.054Z,8.07
2018-01-06T18:26:03.454Z,8.20
2018-01-06T18:28:30.843Z,8.50
2018-01-06T18:30:58.315Z,8.23
2018-01-06T18:33:25.818Z,13.30
2018-01-06T18:35:53.250Z,13.40
2018-01-06T18:38:20.627Z,25.20
2018-01-06T18:40:48.055Z,22.80
2018-01-06T18:43:15.458Z,9.00
2018-01-06T18:45:42.867Z,9.67
2018-01-06T18:48:10.254Z,7.63
2018-01-06T18:50:37.671Z,7.23
2018-01-06T18:53:05.067Z,8.50
2018-01-06T18:55:32.466Z,8.23
2018-01-06T18:57:59.865Z,8.30
2018-01-06T19:00:27.287Z,8.60
2018-01-06T19:02:54.683Z,6.13
2018-01-06T19:05:22.123Z,7.30
2018-01-06T19:07:49.527Z,7.23
2018-01-06T19:10:16.902Z,7.77
2018-01-06T19:12:44.294Z,6.90
2018-01-06T19:15:11.682Z,7.00
2018-01-06T19:17:39.072Z,9.33
2018-01-06T19:20:06.517Z,6.97
2018-01-06T19:22:33.903Z,8.23
2018-01-06T19:25:01.302Z,8.13
2018-01-06T19:27:28.704Z,8.10
2018-01-06T19:29:56.276Z,8.03
2018-01-06T19:32:23.722Z,7.80
2018-01-06T19:34:51.132Z,7.13
2018-01-06T19:37:18.520Z,5.93
2018-01-06T19:39:45.906Z,6.37
2018-01-06T19:42:13.295Z,6.37
2018-01-06T19:44:40.684Z,4.80
2018-01-06T19:47:08.079Z,4.10
2018-01-06T19:49:35.474Z,4.10
2018-01-06T19:52:02.907Z,3.23
2018-01-06T19:54:30.286Z,4.60
2018-01-06T19:56:57.679Z,4.23
2018-01-06T19:59:25.071Z,3.97
2018-01-06T20:01:52.581Z,5.30
2018-01-06T20:04:19.943Z,3.47
2018-01-06T20:06:47.345Z,3.77
2018-01-06T20:09:14.724Z,4.97
2018-01-06T20:11:42.143Z,5.30
2018-01-06T20:14:09.587Z,5.33
2018-01-06T20:16:36.982Z,4.53
2018-01-06T20:19:04.372Z,5.07
2018-01-06T20:21:31.769Z,5.10
2018-01-06T20:23:59.154Z,4.87
2018-01-06T20:26:26.560Z,6.23
2018-01-06T20:28:53.955Z,5.17
2018-01-06T20:31:21.354Z,5.30
2018-01-06T20:33:48.746Z,4.70
2018-01-06T20:36:16.142Z,4.47
2018-01-06T20:38:43.567Z,4.40
2018-01-06T20:41:10.964Z,5.90
2018-01-06T20:43:38.351Z,4.93
2018-01-06T20:46:05.759Z,5.27
2018-01-06T20:48:33.154Z,5.00
2018-01-06T20:51:00.547Z,6.10
2018-01-06T20:53:27.940Z,6.73
2018-01-06T20:55:55.334Z,5.47
2018-01-06T20:58:22.725Z,5.80
2018-01-06T21:00:50.111Z,5.77
2018-01-06T21:03:17.528Z,5.53
2018-01-06T21:05:44.954Z,6.30
2018-01-06T21:08:12.329Z,5.87
2018-01-06T21:10:39.735Z,5.80
2018-01-06T21:13:07.126Z,6.00
2018-01-06T21:15:34.518Z,5.17
2018-01-06T21:18:01.932Z,5.07
2018-01-06T21:20:29.348Z,6.10
2018-01-06T21:22:56.733Z,4.77
2018-01-06T21:25:24.134Z,6.00
2018-01-06T21:27:51.547Z,5.50
2018-01-06T21:30:18.944Z,6.43
2018-01-06T21:32:46.353Z,6.63
2018-01-06T21:35:13.786Z,6.67
2018-01-06T21:37:41.184Z,4.57
2018-01-06T21:40:08.583Z,5.00
2018-01-06T21:42:35.987Z,4.60
2018-01-06T21:45:03.398Z,4.23
2018-01-06T21:49:58.180Z,4.70
2018-01-06T21:52:25.590Z,4.37
2018-01-06T21:54:52.982Z,4.10
2018-01-06T21:57:20.382Z,4.60
2018-01-06T21:59:47.802Z,3.87
2018-01-06T22:02:15.191Z,5.50
2018-01-06T22:04:42.644Z,4.07
2018-01-06T22:07:10.075Z,3.73
2018-01-06T22:09:37.474Z,3.67
2018-01-06T22:12:04.863Z,3.43
2018-01-06T22:14:32.271Z,3.47
2018-01-06T22:16:59.816Z,3.87
2018-01-06T22:19:27.188Z,2.47
2018-01-06T22:21:54.583Z,2.70
2018-01-06T22:24:21.988Z,2.90
2018-01-06T22:26:49.379Z,5.33
2018-01-06T22:29:16.774Z,2.50
2018-01-06T22:31:44.187Z,2.73
2018-01-06T22:34:11.586Z,4.00
2018-01-06T22:36:38.982Z,2.40
2018-01-06T22:39:06.733Z,2.00
2018-01-06T22:41:34.688Z,2.53
2018-01-06T22:44:02.091Z,2.30
2018-01-06T22:46:29.486Z,3.37
2018-01-06T22:48:56.878Z,8.10
2018-01-06T22:51:24.278Z,3.50
2018-01-06T22:53:51.661Z,3.37
2018-01-06T22:56:19.051Z,3.20
2018-01-06T22:58:46.475Z,3.40
2018-01-06T23:01:21.267Z,4.87
2018-01-06T23:03:48.651Z,4.57
2018-01-06T23:06:16.051Z,3.40
2018-01-06T23:08:43.448Z,4.60
2018-01-06T23:11:10.831Z,8.80
2018-01-06T23:13:38.244Z,3.50
2018-01-06T23:16:05.614Z,2.90
2018-01-06T23:18:33.036Z,3.53
2018-01-06T23:21:00.413Z,3.53
2018-01-06T23:23:27.829Z,3.90
2018-01-06T23:25:55.226Z,3.50
2018-01-06T23:28:22.624Z,3.97
2018-01-06T23:30:49.998Z,4.43
2018-01-06T23:33:17.402Z,4.10
2018-01-06T23:35:44.815Z,4.47
2018-01-06T23:38:12.226Z,4.30
2018-01-06T23:40:39.620Z,3.77
2018-01-06T23:43:07.018Z,3.40
2018-01-06T23:45:34.478Z,3.40
2018-01-06T23:48:01.885Z,4.10
2018-01-06T23:50:29.286Z,6.33
2018-01-06T23:52:56.706Z,4.43
2018-01-06T23:55:24.215Z,2.40
2018-01-06T23:57:51.778Z,3.33
